createdAt,value
2019-02-12T00:00:26.891Z,7.57
2019-02-12T00:01:00.080Z,6.77
2019-02-12T00:01:31.389Z,6.00
2019-02-12T00:02:02.825Z,6.43
2019-02-12T00:02:33.993Z,5.67
2019-02-12T00:03:05.234Z,4.43
2019-02-12T00:03:36.463Z,5.37
2019-02-12T00:04:07.669Z,7.50
2019-02-12T00:04:38.939Z,6.50
2019-02-12T00:05:10.142Z,4.47
2019-02-12T00:05:41.371Z,4.50
2019-02-12T00:06:12.541Z,5.00
2019-02-12T00:06:43.797Z,7.03
2019-02-12T00:07:15.005Z,7.43
2019-02-12T00:07:46.243Z,5.93
2019-02-12T00:08:17.461Z,6.30
2019-02-12T00:08:48.689Z,4.77
2019-02-12T00:09:19.873Z,4.47
2019-02-12T00:09:51.083Z,6.00
2019-02-12T00:10:22.278Z,5.00
2019-02-12T00:10:53.513Z,6.70
2019-02-12T00:11:24.727Z,6.43
2019-02-12T00:11:55.933Z,5.30
2019-02-12T00:12:27.123Z,3.87
2019-02-12T00:12:58.470Z,5.50
2019-02-12T00:13:29.702Z,5.83
2019-02-12T00:14:00.941Z,6.20
2019-02-12T00:14:32.132Z,5.97
2019-02-12T00:15:04.772Z,6.30
2019-02-12T00:15:37.151Z,7.50
2019-02-12T00:16:08.612Z,5.97
2019-02-12T00:16:39.810Z,4.23
2019-02-12T00:17:11.049Z,5.33
2019-02-12T00:17:42.338Z,9.07
2019-02-12T00:18:13.580Z,7.13
2019-02-12T00:18:44.779Z,7.53
2019-02-12T00:19:16.031Z,6.47
2019-02-12T00:19:47.314Z,5.37
2019-02-12T00:20:18.574Z,7.90
2019-02-12T00:20:49.790Z,10.87
2019-02-12T00:21:21.084Z,7.70
2019-02-12T00:21:52.259Z,7.40
2019-02-12T00:22:23.511Z,9.37
2019-02-12T00:22:54.715Z,8.00
2019-02-12T00:23:25.954Z,7.80
2019-02-12T00:23:57.120Z,6.07
2019-02-12T00:24:28.359Z,6.97
2019-02-12T00:24:59.532Z,10.03
2019-02-12T00:25:30.773Z,9.53
2019-02-12T00:26:01.953Z,10.13
2019-02-12T00:26:33.203Z,9.03
2019-02-12T00:27:04.428Z,9.13
2019-02-12T00:27:35.727Z,8.83
2019-02-12T00:28:06.992Z,9.27
2019-02-12T00:28:38.272Z,9.50
2019-02-12T00:29:09.573Z,11.40
2019-02-12T00:29:40.837Z,12.30
2019-02-12T00:30:12.245Z,9.30
2019-02-12T00:30:43.539Z,8.73
2019-02-12T00:31:14.849Z,10.77
2019-02-12T00:31:46.129Z,8.20
2019-02-12T00:32:17.567Z,10.93
2019-02-12T00:32:48.745Z,9.33
2019-02-12T00:33:19.986Z,7.97
2019-02-12T00:33:51.179Z,5.70
2019-02-12T00:34:22.413Z,5.70
2019-02-12T00:34:53.593Z,7.07
2019-02-12T00:35:24.947Z,7.27
2019-02-12T00:35:56.139Z,7.37
2019-02-12T00:36:28.369Z,7.40
2019-02-12T00:36:59.563Z,8.00
2019-02-12T00:37:30.825Z,6.00
2019-02-12T00:38:02.021Z,5.40
2019-02-12T00:38:33.275Z,6.37
2019-02-12T00:39:04.652Z,7.70
2019-02-12T00:39:37.822Z,9.17
2019-02-12T00:40:09.093Z,6.73
2019-02-12T00:40:40.348Z,5.17
2019-02-12T00:41:11.769Z,6.50
2019-02-12T00:41:43.006Z,5.77
2019-02-12T00:42:14.224Z,5.50
2019-02-12T00:42:45.497Z,5.27
2019-02-12T00:43:16.823Z,8.37
2019-02-12T00:43:48.176Z,5.50
2019-02-12T00:44:19.518Z,4.80
2019-02-12T00:44:50.816Z,5.50
2019-02-12T00:45:22.103Z,6.40
2019-02-12T00:45:53.408Z,3.63
2019-02-12T00:46:24.647Z,5.57
2019-02-12T00:46:55.961Z,9.23
2019-02-12T00:47:27.284Z,7.63
2019-02-12T00:47:58.450Z,7.00
2019-02-12T00:48:29.678Z,9.97
2019-02-12T00:49:00.858Z,9.40
2019-02-12T00:49:32.085Z,9.13
2019-02-12T00:50:07.771Z,6.37
2019-02-12T00:50:39.136Z,10.83
2019-02-12T00:51:17.618Z,9.33
2019-02-12T00:51:43.474Z,8.97
2019-02-12T00:52:14.705Z,10.03
2019-02-12T00:52:45.971Z,11.10
2019-02-12T00:53:17.191Z,16.20
2019-02-12T00:53:48.453Z,20.40
2019-02-12T00:54:19.635Z,20.03
2019-02-12T00:54:50.887Z,24.07
2019-02-12T00:55:22.071Z,18.33
2019-02-12T00:55:53.319Z,12.37
2019-02-12T00:56:24.517Z,16.13
2019-02-12T00:56:55.738Z,15.67
2019-02-12T00:57:26.952Z,15.90
2019-02-12T00:57:58.235Z,8.67
2019-02-12T00:58:29.535Z,9.97
2019-02-12T00:59:00.818Z,13.03
2019-02-12T00:59:32.103Z,8.43
2019-02-12T01:00:12.255Z,13.53
2019-02-12T01:00:43.512Z,7.07
2019-02-12T01:01:14.783Z,7.03
2019-02-12T01:01:46.085Z,10.53
2019-02-12T01:02:17.341Z,9.63
2019-02-12T01:02:48.610Z,7.37
2019-02-12T01:03:19.858Z,9.90
2019-02-12T01:03:51.054Z,8.30
2019-02-12T01:04:22.271Z,5.90
2019-02-12T01:04:53.488Z,9.97
2019-02-12T01:05:24.721Z,8.17
2019-02-12T01:05:55.912Z,6.43
2019-02-12T01:06:27.154Z,9.27
2019-02-12T01:06:58.539Z,8.67
2019-02-12T01:07:29.764Z,13.43
2019-02-12T01:08:00.956Z,10.80
2019-02-12T01:08:32.221Z,10.43
2019-02-12T01:09:03.974Z,9.23
2019-02-12T01:09:36.230Z,7.47
2019-02-12T01:10:09.720Z,8.13
2019-02-12T01:10:40.928Z,8.97
2019-02-12T01:11:12.122Z,16.80
2019-02-12T01:11:43.372Z,9.37
2019-02-12T01:12:14.586Z,11.83
2019-02-12T01:12:45.814Z,13.13
2019-02-12T01:13:17.012Z,8.27
2019-02-12T01:13:48.234Z,10.33
2019-02-12T01:14:19.446Z,11.57
2019-02-12T01:14:50.770Z,13.83
2019-02-12T01:15:21.948Z,14.33
2019-02-12T01:15:53.184Z,11.60
2019-02-12T01:16:24.400Z,9.13
2019-02-12T01:16:55.728Z,8.80
2019-02-12T01:17:26.910Z,11.53
2019-02-12T01:17:58.159Z,12.07
2019-02-12T01:18:29.400Z,10.50
2019-02-12T01:19:00.622Z,8.90
2019-02-12T01:19:31.819Z,8.67
2019-02-12T01:20:07.053Z,9.83
2019-02-12T01:20:38.252Z,9.33
2019-02-12T01:21:09.485Z,10.27
2019-02-12T01:21:40.676Z,7.17
2019-02-12T01:22:12.191Z,8.90
2019-02-12T01:22:43.387Z,8.80
2019-02-12T01:23:14.659Z,11.30
2019-02-12T01:23:45.889Z,7.93
2019-02-12T01:24:17.164Z,7.10
2019-02-12T01:24:48.319Z,15.70
2019-02-12T01:25:19.574Z,9.47
2019-02-12T01:25:50.827Z,4.83
2019-02-12T01:26:22.077Z,6.40
2019-02-12T01:26:53.262Z,14.33
2019-02-12T01:27:24.522Z,8.97
2019-02-12T01:27:55.730Z,8.77
2019-02-12T01:28:26.911Z,7.50
2019-02-12T01:28:58.155Z,7.43
2019-02-12T01:29:29.458Z,5.67
2019-02-12T01:30:02.873Z,7.23
2019-02-12T01:30:34.201Z,6.80
2019-02-12T01:31:05.424Z,7.73
2019-02-12T01:31:36.633Z,9.10
2019-02-12T01:32:07.835Z,6.60
2019-02-12T01:32:39.312Z,9.27
2019-02-12T01:33:10.570Z,10.67
2019-02-12T01:33:42.843Z,11.47
2019-02-12T01:34:14.058Z,7.77
2019-02-12T01:34:45.290Z,8.63
2019-02-12T01:35:16.493Z,7.83
2019-02-12T01:35:47.704Z,8.83
2019-02-12T01:36:18.936Z,9.43
2019-02-12T01:36:50.130Z,6.97
2019-02-12T01:37:21.328Z,7.43
2019-02-12T01:37:52.597Z,8.40
2019-02-12T01:38:23.776Z,10.33
2019-02-12T01:38:55.007Z,9.77
2019-02-12T01:39:26.221Z,10.30
2019-02-12T01:39:57.448Z,8.60
2019-02-12T01:40:28.653Z,9.00
2019-02-12T01:40:59.923Z,11.23
2019-02-12T01:41:31.071Z,9.90
2019-02-12T01:42:02.320Z,6.77
2019-02-12T01:42:33.591Z,13.40
2019-02-12T01:43:04.867Z,12.97
2019-02-12T01:43:36.057Z,7.60
2019-02-12T01:44:07.291Z,7.80
2019-02-12T01:44:38.459Z,8.13
2019-02-12T01:45:10.884Z,10.53
2019-02-12T01:45:42.188Z,8.93
2019-02-12T01:46:13.511Z,9.53
2019-02-12T01:46:44.704Z,7.03
2019-02-12T01:47:16.972Z,11.50
2019-02-12T01:47:48.175Z,9.23
2019-02-12T01:48:19.417Z,9.27
2019-02-12T01:48:50.571Z,9.03
2019-02-12T01:49:21.820Z,7.40
2019-02-12T01:49:52.981Z,9.07
2019-02-12T01:50:24.227Z,10.20
2019-02-12T01:50:55.399Z,7.90
2019-02-12T01:51:34.789Z,10.97
2019-02-12T01:51:59.714Z,10.40
2019-02-12T01:52:30.974Z,9.47
2019-02-12T01:53:02.176Z,7.80
2019-02-12T01:53:33.376Z,8.70
2019-02-12T01:54:04.562Z,8.17
2019-02-12T01:54:35.745Z,7.80
2019-02-12T01:55:07.027Z,9.80
2019-02-12T01:55:38.224Z,7.97
2019-02-12T01:56:09.433Z,7.07
2019-02-12T01:56:40.618Z,7.60
2019-02-12T01:57:11.836Z,10.57
2019-02-12T01:57:43.049Z,7.37
2019-02-12T01:58:14.272Z,6.30
2019-02-12T01:58:45.450Z,7.93
2019-02-12T01:59:16.674Z,9.20
2019-02-12T01:59:47.876Z,10.03
2019-02-12T02:00:19.123Z,10.67
2019-02-12T02:00:50.308Z,5.77
2019-02-12T02:01:21.549Z,9.03
2019-02-12T02:01:52.754Z,4.97
2019-02-12T02:02:23.995Z,8.43
2019-02-12T02:02:55.178Z,9.80
2019-02-12T02:03:26.468Z,10.83
2019-02-12T02:03:57.747Z,6.10
2019-02-12T02:04:29.034Z,8.50
2019-02-12T02:05:00.340Z,10.77
2019-02-12T02:05:31.715Z,6.40
2019-02-12T02:06:02.960Z,7.97
2019-02-12T02:06:34.280Z,6.47
2019-02-12T02:07:05.565Z,9.23
2019-02-12T02:07:36.846Z,6.73
2019-02-12T02:08:08.105Z,10.90
2019-02-12T02:08:39.359Z,8.83
2019-02-12T02:09:10.583Z,7.73
2019-02-12T02:09:41.817Z,9.23
2019-02-12T02:10:15.479Z,6.17
2019-02-12T02:10:46.743Z,7.40
2019-02-12T02:11:17.939Z,5.97
2019-02-12T02:11:49.175Z,6.00
2019-02-12T02:12:20.346Z,11.10
2019-02-12T02:12:51.583Z,8.67
2019-02-12T02:13:22.803Z,9.37
2019-02-12T02:13:54.077Z,10.67
2019-02-12T02:14:25.359Z,9.23
2019-02-12T02:14:56.656Z,10.37
2019-02-12T02:15:28.143Z,10.77
2019-02-12T02:15:59.394Z,10.77
2019-02-12T02:16:30.677Z,17.60
2019-02-12T02:17:01.994Z,10.23
2019-02-12T02:17:33.277Z,6.43
2019-02-12T02:18:04.546Z,10.63
2019-02-12T02:18:35.777Z,9.00
2019-02-12T02:19:06.968Z,7.73
2019-02-12T02:19:38.217Z,7.37
2019-02-12T02:20:13.595Z,8.73
2019-02-12T02:20:44.902Z,11.03
2019-02-12T02:21:16.067Z,8.43
2019-02-12T02:21:47.316Z,8.27
2019-02-12T02:22:18.503Z,8.20
2019-02-12T02:22:49.749Z,8.70
2019-02-12T02:23:20.966Z,8.90
2019-02-12T02:23:52.220Z,11.27
2019-02-12T02:24:23.442Z,10.70
2019-02-12T02:24:54.702Z,5.77
2019-02-12T02:25:25.872Z,6.73
2019-02-12T02:25:57.080Z,5.77
2019-02-12T02:26:28.262Z,10.43
2019-02-12T02:26:59.552Z,11.50
2019-02-12T02:27:30.784Z,7.67
2019-02-12T02:28:02.021Z,6.93
2019-02-12T02:28:33.225Z,9.03
2019-02-12T02:29:04.434Z,5.97
2019-02-12T02:29:35.646Z,8.73
2019-02-12T02:30:10.044Z,7.97
2019-02-12T02:30:41.317Z,8.87
2019-02-12T02:31:12.583Z,10.27
2019-02-12T02:31:43.800Z,8.53
2019-02-12T02:32:15.046Z,10.73
2019-02-12T02:32:46.300Z,6.80
2019-02-12T02:33:17.514Z,10.57
2019-02-12T02:33:48.719Z,8.10
2019-02-12T02:34:19.911Z,8.90
2019-02-12T02:34:51.129Z,7.40
2019-02-12T02:35:22.346Z,7.80
2019-02-12T02:35:53.542Z,8.93
2019-02-12T02:36:24.763Z,5.63
2019-02-12T02:36:55.985Z,8.77
2019-02-12T02:37:27.167Z,10.27
2019-02-12T02:37:58.373Z,12.60
2019-02-12T02:38:29.676Z,9.83
2019-02-12T02:39:00.871Z,5.87
2019-02-12T02:39:32.125Z,7.70
2019-02-12T02:40:06.503Z,9.83
2019-02-12T02:40:37.729Z,11.63
2019-02-12T02:41:09.189Z,12.20
2019-02-12T02:41:40.433Z,11.23
2019-02-12T02:42:11.627Z,7.20
2019-02-12T02:42:42.868Z,8.47
2019-02-12T02:43:14.042Z,9.33
2019-02-12T02:43:45.310Z,10.30
2019-02-12T02:44:16.516Z,8.13
2019-02-12T02:44:47.805Z,14.33
2019-02-12T02:45:19.003Z,18.67
2019-02-12T02:45:50.258Z,16.40
2019-02-12T02:46:21.457Z,16.97
2019-02-12T02:46:52.726Z,11.60
2019-02-12T02:47:23.930Z,10.17
2019-02-12T02:47:55.158Z,13.20
2019-02-12T02:48:26.337Z,12.80
2019-02-12T02:48:57.594Z,12.27
2019-02-12T02:49:28.872Z,15.10
2019-02-12T02:50:00.310Z,9.37
2019-02-12T02:50:31.512Z,10.87
2019-02-12T02:51:02.754Z,14.67
2019-02-12T02:51:33.915Z,11.53
2019-02-12T02:52:05.172Z,12.17
2019-02-12T02:52:36.372Z,9.13
2019-02-12T02:53:07.635Z,9.43
2019-02-12T02:53:39.112Z,10.87
2019-02-12T02:54:10.353Z,10.77
2019-02-12T02:54:41.541Z,9.43
2019-02-12T02:55:12.807Z,8.60
2019-02-12T02:55:43.994Z,6.20
2019-02-12T02:56:15.237Z,7.97
2019-02-12T02:56:46.422Z,6.30
2019-02-12T02:57:17.668Z,9.33
2019-02-12T02:57:48.847Z,8.50
2019-02-12T02:58:20.064Z,6.63
2019-02-12T02:58:51.279Z,9.40
2019-02-12T02:59:23.474Z,7.03
2019-02-12T02:59:54.722Z,8.77
2019-02-12T03:00:25.963Z,6.50
2019-02-12T03:00:57.184Z,7.97
2019-02-12T03:01:28.395Z,8.60
2019-02-12T03:01:59.600Z,12.37
2019-02-12T03:02:30.849Z,7.10
2019-02-12T03:03:02.391Z,7.40
2019-02-12T03:03:33.721Z,8.20
2019-02-12T03:04:04.955Z,9.10
2019-02-12T03:04:36.242Z,9.90
2019-02-12T03:05:09.900Z,6.63
2019-02-12T03:05:41.085Z,7.63
2019-02-12T03:06:12.377Z,8.40
2019-02-12T03:06:43.682Z,11.90
2019-02-12T03:07:14.929Z,8.87
2019-02-12T03:07:46.111Z,10.47
2019-02-12T03:08:17.369Z,16.73
2019-02-12T03:08:49.556Z,10.90
2019-02-12T03:09:20.793Z,8.33
2019-02-12T03:09:51.970Z,8.73
2019-02-12T03:10:24.229Z,9.27
2019-02-12T03:10:55.418Z,6.70
2019-02-12T03:11:26.757Z,6.27
2019-02-12T03:11:58.054Z,8.27
2019-02-12T03:12:29.286Z,8.87
2019-02-12T03:13:00.474Z,6.30
2019-02-12T03:13:31.723Z,5.53
2019-02-12T03:14:02.930Z,8.80
2019-02-12T03:14:34.197Z,7.20
2019-02-12T03:15:08.770Z,8.20
2019-02-12T03:15:40.093Z,6.87
2019-02-12T03:16:11.639Z,7.27
2019-02-12T03:16:42.941Z,5.73
2019-02-12T03:17:14.242Z,6.87
2019-02-12T03:17:45.514Z,7.00
2019-02-12T03:18:16.790Z,9.87
2019-02-12T03:18:48.078Z,7.90
2019-02-12T03:19:19.325Z,8.00
2019-02-12T03:19:50.523Z,8.23
2019-02-12T03:20:21.770Z,10.50
2019-02-12T03:20:52.952Z,8.23
2019-02-12T03:21:24.191Z,7.90
2019-02-12T03:22:03.395Z,11.47
2019-02-12T03:22:28.518Z,12.43
2019-02-12T03:22:59.793Z,10.27
2019-02-12T03:23:31.028Z,9.00
2019-02-12T03:24:02.275Z,9.33
2019-02-12T03:24:33.529Z,14.17
2019-02-12T03:25:07.666Z,12.57
2019-02-12T03:25:38.980Z,11.43
2019-02-12T03:26:10.153Z,9.97
2019-02-12T03:26:41.647Z,9.07
2019-02-12T03:27:12.822Z,13.73
2019-02-12T03:27:44.033Z,9.30
2019-02-12T03:28:15.251Z,12.37
2019-02-12T03:28:46.576Z,8.70
2019-02-12T03:29:17.812Z,8.67
2019-02-12T03:29:49.007Z,5.73
2019-02-12T03:30:20.214Z,7.10
2019-02-12T03:30:51.550Z,8.27
2019-02-12T03:31:22.750Z,6.27
2019-02-12T03:31:54.063Z,8.17
2019-02-12T03:32:25.293Z,6.47
2019-02-12T03:32:56.587Z,8.10
2019-02-12T03:33:27.782Z,8.13
2019-02-12T03:33:59.011Z,7.80
2019-02-12T03:34:30.440Z,9.97
2019-02-12T03:35:01.846Z,7.73
2019-02-12T03:35:33.066Z,9.13
2019-02-12T03:36:04.298Z,8.23
2019-02-12T03:36:35.493Z,8.20
2019-02-12T03:37:06.726Z,6.40
2019-02-12T03:37:37.938Z,12.07
2019-02-12T03:38:09.316Z,7.37
2019-02-12T03:38:40.547Z,9.63
2019-02-12T03:39:11.769Z,8.40
2019-02-12T03:39:42.964Z,7.60
2019-02-12T03:40:14.188Z,8.10
2019-02-12T03:40:45.506Z,10.23
2019-02-12T03:41:16.716Z,5.73
2019-02-12T03:41:47.932Z,8.73
2019-02-12T03:42:19.154Z,9.33
2019-02-12T03:42:50.355Z,12.17
2019-02-12T03:43:21.676Z,9.57
2019-02-12T03:43:52.888Z,12.67
2019-02-12T03:44:24.134Z,9.90
2019-02-12T03:44:55.322Z,5.93
2019-02-12T03:45:26.572Z,8.13
2019-02-12T03:45:57.777Z,6.83
2019-02-12T03:46:29.035Z,10.47
2019-02-12T03:47:00.233Z,8.73
2019-02-12T03:47:31.442Z,7.40
2019-02-12T03:48:02.672Z,8.67
2019-02-12T03:48:33.858Z,8.07
2019-02-12T03:49:05.075Z,12.97
2019-02-12T03:49:36.283Z,10.67
2019-02-12T03:50:10.091Z,8.87
2019-02-12T03:50:41.625Z,8.33
2019-02-12T03:51:12.833Z,8.67
2019-02-12T03:51:44.047Z,6.67
2019-02-12T03:52:16.258Z,7.30
2019-02-12T03:52:47.446Z,6.13
2019-02-12T03:53:18.649Z,7.17
2019-02-12T03:53:49.862Z,9.50
2019-02-12T03:54:21.078Z,10.37
2019-02-12T03:54:52.257Z,8.17
2019-02-12T03:55:23.425Z,10.73
2019-02-12T03:55:54.698Z,10.77
2019-02-12T03:56:25.901Z,6.57
2019-02-12T03:56:57.136Z,11.90
2019-02-12T03:57:28.318Z,7.80
2019-02-12T03:57:59.564Z,6.83
2019-02-12T03:58:30.772Z,7.70
2019-02-12T03:59:02.025Z,10.63
2019-02-12T03:59:33.250Z,8.23
2019-02-12T04:00:12.052Z,9.53
2019-02-12T04:00:43.282Z,12.40
2019-02-12T04:01:14.501Z,12.07
2019-02-12T04:01:45.700Z,10.37
2019-02-12T04:02:16.940Z,11.53
2019-02-12T04:03:00.626Z,10.93
2019-02-12T04:03:31.827Z,13.93
2019-02-12T04:04:03.099Z,9.13
2019-02-12T04:04:34.315Z,7.80
2019-02-12T04:05:06.499Z,10.27
2019-02-12T04:05:37.849Z,10.20
2019-02-12T04:06:09.082Z,8.97
2019-02-12T04:06:40.345Z,13.30
2019-02-12T04:07:11.527Z,13.60
2019-02-12T04:07:42.781Z,13.67
2019-02-12T04:08:13.944Z,7.77
2019-02-12T04:08:45.208Z,10.20
2019-02-12T04:09:16.378Z,12.60
2019-02-12T04:09:47.617Z,14.37
2019-02-12T04:10:18.925Z,11.10
2019-02-12T04:10:50.181Z,19.30
2019-02-12T04:11:21.491Z,12.77
2019-02-12T04:11:52.741Z,8.67
2019-02-12T04:12:23.917Z,8.67
2019-02-12T04:12:55.178Z,12.00
2019-02-12T04:13:26.449Z,16.37
2019-02-12T04:13:57.683Z,16.23
2019-02-12T04:14:28.882Z,11.07
2019-02-12T04:15:00.265Z,11.43
2019-02-12T04:15:31.629Z,12.27
2019-02-12T04:16:03.857Z,16.00
2019-02-12T04:16:35.036Z,8.13
2019-02-12T04:17:06.269Z,9.57
2019-02-12T04:17:37.456Z,9.20
2019-02-12T04:18:08.760Z,16.50
2019-02-12T04:18:39.950Z,8.90
2019-02-12T04:19:11.187Z,9.63
2019-02-12T04:19:42.449Z,7.33
2019-02-12T04:20:13.705Z,8.70
2019-02-12T04:20:44.905Z,7.97
2019-02-12T04:21:16.143Z,10.97
2019-02-12T04:21:47.338Z,10.73
2019-02-12T04:22:22.431Z,7.70
2019-02-12T04:22:51.668Z,9.27
2019-02-12T04:23:22.856Z,8.13
2019-02-12T04:23:54.090Z,9.67
2019-02-12T04:24:25.282Z,7.80
2019-02-12T04:24:56.522Z,9.43
2019-02-12T04:25:27.781Z,11.07
2019-02-12T04:25:59.030Z,8.93
2019-02-12T04:26:30.259Z,8.83
2019-02-12T04:27:01.560Z,8.10
2019-02-12T04:27:32.857Z,10.60
2019-02-12T04:28:04.151Z,8.53
2019-02-12T04:28:36.626Z,10.13
2019-02-12T04:29:07.932Z,6.97
2019-02-12T04:29:39.209Z,8.97
2019-02-12T04:30:10.468Z,12.40
2019-02-12T04:30:41.753Z,10.27
2019-02-12T04:31:12.982Z,9.83
2019-02-12T04:31:44.163Z,9.17
2019-02-12T04:32:15.404Z,9.87
2019-02-12T04:32:46.592Z,13.87
2019-02-12T04:33:17.813Z,10.23
2019-02-12T04:33:48.999Z,13.13
2019-02-12T04:34:20.247Z,12.17
2019-02-12T04:34:51.475Z,13.27
2019-02-12T04:35:22.760Z,11.03
2019-02-12T04:35:54.043Z,12.73
2019-02-12T04:36:25.361Z,12.67
2019-02-12T04:36:56.647Z,14.40
2019-02-12T04:37:27.923Z,10.57
2019-02-12T04:37:59.194Z,9.40
2019-02-12T04:38:30.487Z,9.10
2019-02-12T04:39:01.768Z,13.30
2019-02-12T04:39:33.047Z,11.83
2019-02-12T04:40:08.635Z,12.63
2019-02-12T04:40:39.801Z,10.70
2019-02-12T04:41:11.047Z,9.33
2019-02-12T04:41:42.296Z,11.50
2019-02-12T04:42:13.540Z,8.37
2019-02-12T04:42:44.770Z,15.43
2019-02-12T04:43:16.081Z,9.27
2019-02-12T04:43:47.253Z,10.47
2019-02-12T04:44:18.502Z,9.90
2019-02-12T04:44:49.693Z,11.63
2019-02-12T04:45:20.938Z,11.27
2019-02-12T04:45:52.117Z,11.80
2019-02-12T04:46:23.350Z,14.40
2019-02-12T04:46:54.557Z,9.07
2019-02-12T04:47:25.834Z,8.97
2019-02-12T04:47:57.102Z,13.67
2019-02-12T04:48:28.364Z,10.57
2019-02-12T04:48:59.631Z,11.97
2019-02-12T04:49:30.899Z,8.30
2019-02-12T04:50:05.548Z,12.50
2019-02-12T04:50:37.817Z,12.90
2019-02-12T04:51:09.342Z,14.57
2019-02-12T04:51:40.618Z,16.03
2019-02-12T04:52:12.203Z,10.50
2019-02-12T04:52:43.507Z,8.93
2019-02-12T04:53:14.786Z,11.13
2019-02-12T04:53:46.103Z,12.60
2019-02-12T04:54:17.465Z,11.17
2019-02-12T04:54:48.745Z,11.73
2019-02-12T04:55:19.987Z,12.57
2019-02-12T04:55:51.161Z,9.93
2019-02-12T04:56:22.432Z,12.63
2019-02-12T04:56:53.622Z,11.87
2019-02-12T04:57:24.857Z,13.63
2019-02-12T04:57:56.031Z,10.30
2019-02-12T04:58:27.265Z,13.10
2019-02-12T04:58:58.461Z,9.47
2019-02-12T04:59:29.753Z,13.13
2019-02-12T05:00:00.917Z,16.60
2019-02-12T05:00:32.221Z,12.57
2019-02-12T05:01:03.558Z,11.67
2019-02-12T05:01:34.827Z,12.20
2019-02-12T05:02:06.003Z,9.87
2019-02-12T05:02:37.248Z,7.63
2019-02-12T05:03:08.440Z,8.73
2019-02-12T05:03:39.665Z,9.50
2019-02-12T05:04:10.924Z,10.67
2019-02-12T05:04:42.327Z,13.17
2019-02-12T05:05:13.542Z,13.20
2019-02-12T05:05:44.750Z,8.73
2019-02-12T05:06:15.964Z,9.60
2019-02-12T05:06:47.188Z,11.13
2019-02-12T05:07:18.425Z,8.47
2019-02-12T05:07:49.654Z,11.93
2019-02-12T05:08:20.921Z,11.00
2019-02-12T05:09:14.304Z,14.13
2019-02-12T05:09:47.133Z,14.40
2019-02-12T05:10:32.956Z,17.77
2019-02-12T05:11:04.660Z,14.70
2019-02-12T05:11:36.087Z,12.97
2019-02-12T05:12:07.293Z,14.77
2019-02-12T05:12:38.554Z,11.97
2019-02-12T05:13:09.750Z,14.03
2019-02-12T05:13:40.992Z,16.07
2019-02-12T05:14:12.266Z,12.97
2019-02-12T05:14:43.462Z,12.50
2019-02-12T05:15:14.673Z,13.20
2019-02-12T05:15:45.875Z,12.83
2019-02-12T05:16:17.090Z,9.90
2019-02-12T05:16:48.318Z,12.63
2019-02-12T05:17:19.518Z,12.57
2019-02-12T05:17:50.747Z,14.17
2019-02-12T05:18:21.965Z,12.27
2019-02-12T05:18:53.209Z,19.53
2019-02-12T05:19:24.443Z,13.80
2019-02-12T05:19:55.621Z,14.50
2019-02-12T05:20:27.837Z,12.60
2019-02-12T05:20:59.065Z,11.70
2019-02-12T05:21:30.370Z,11.43
2019-02-12T05:22:01.623Z,14.23
2019-02-12T05:22:42.859Z,11.83
2019-02-12T05:23:05.991Z,16.33
2019-02-12T05:23:37.219Z,12.90
2019-02-12T05:24:08.747Z,12.60
2019-02-12T05:24:40.007Z,14.17
2019-02-12T05:25:12.406Z,15.53
2019-02-12T05:25:43.630Z,16.70
2019-02-12T05:26:14.807Z,21.80
2019-02-12T05:26:46.090Z,22.60
2019-02-12T05:27:17.251Z,14.53
2019-02-12T05:27:48.515Z,23.10
2019-02-12T05:28:19.686Z,20.10
2019-02-12T05:28:51.057Z,20.27
2019-02-12T05:29:22.241Z,19.90
2019-02-12T05:29:53.482Z,18.53
2019-02-12T05:30:24.694Z,12.63
2019-02-12T05:30:56.000Z,18.73
2019-02-12T05:31:27.360Z,15.70
2019-02-12T05:31:58.643Z,15.70
2019-02-12T05:32:29.916Z,16.57
2019-02-12T05:33:01.206Z,16.30
2019-02-12T05:33:32.501Z,20.70
2019-02-12T05:34:03.765Z,24.63
2019-02-12T05:34:35.132Z,23.13
2019-02-12T05:35:06.403Z,28.03
2019-02-12T05:35:37.660Z,26.97
2019-02-12T05:36:08.938Z,40.73
2019-02-12T05:36:40.183Z,35.87
2019-02-12T05:37:11.336Z,28.83
2019-02-12T05:37:42.971Z,24.47
2019-02-12T05:38:14.165Z,18.70
2019-02-12T05:38:45.636Z,19.67
2019-02-12T05:39:16.807Z,12.97
2019-02-12T05:39:48.061Z,33.43
2019-02-12T05:40:19.235Z,30.63
2019-02-12T05:40:50.464Z,26.17
2019-02-12T05:41:21.637Z,24.57
2019-02-12T05:41:52.874Z,20.83
2019-02-12T05:42:24.064Z,24.67
2019-02-12T05:42:55.385Z,16.77
2019-02-12T05:43:26.593Z,15.67
2019-02-12T05:43:57.840Z,14.17
2019-02-12T05:44:29.134Z,17.90
2019-02-12T05:45:00.432Z,15.20
2019-02-12T05:45:31.647Z,17.53
2019-02-12T05:46:02.904Z,16.20
2019-02-12T05:46:34.069Z,14.27
2019-02-12T05:47:06.961Z,15.53
2019-02-12T05:47:38.284Z,12.80
2019-02-12T05:48:09.581Z,19.23
2019-02-12T05:48:40.762Z,16.70
2019-02-12T05:49:12.041Z,13.63
2019-02-12T05:49:43.278Z,14.17
2019-02-12T05:50:16.325Z,10.97
2019-02-12T05:50:47.558Z,13.37
2019-02-12T05:51:18.841Z,21.67
2019-02-12T05:51:50.120Z,11.73
2019-02-12T05:52:21.367Z,16.27
2019-02-12T05:52:54.833Z,17.63
2019-02-12T05:53:25.839Z,17.67
2019-02-12T05:53:57.129Z,17.03
2019-02-12T05:54:29.506Z,17.57
2019-02-12T05:55:00.804Z,17.10
2019-02-12T05:55:32.094Z,18.90
2019-02-12T05:56:03.342Z,17.00
2019-02-12T05:56:34.516Z,19.93
2019-02-12T05:57:05.775Z,22.23
2019-02-12T05:57:36.942Z,22.40
2019-02-12T05:58:08.202Z,21.13
2019-02-12T05:58:39.399Z,17.20
2019-02-12T05:59:10.638Z,21.40
2019-02-12T05:59:41.952Z,25.30
2019-02-12T06:00:19.823Z,19.87
2019-02-12T06:00:51.029Z,24.23
2019-02-12T06:01:22.251Z,20.90
2019-02-12T06:01:53.409Z,24.27
2019-02-12T06:02:24.656Z,23.40
2019-02-12T06:02:55.949Z,18.17
2019-02-12T06:03:27.216Z,18.60
2019-02-12T06:03:58.389Z,21.73
2019-02-12T06:04:29.668Z,21.83
2019-02-12T06:05:00.847Z,14.13
2019-02-12T06:05:32.099Z,15.07
2019-02-12T06:06:03.308Z,14.20
2019-02-12T06:06:34.579Z,16.93
2019-02-12T06:07:05.885Z,13.77
2019-02-12T06:07:37.172Z,14.53
2019-02-12T06:08:08.673Z,13.53
2019-02-12T06:08:39.944Z,11.87
2019-02-12T06:09:11.212Z,21.87
2019-02-12T06:09:42.499Z,14.17
2019-02-12T06:10:13.775Z,17.30
2019-02-12T06:10:45.043Z,14.23
2019-02-12T06:11:16.301Z,21.67
2019-02-12T06:11:47.491Z,20.03
2019-02-12T06:12:18.737Z,17.37
2019-02-12T06:12:49.914Z,18.07
2019-02-12T06:13:21.169Z,22.73
2019-02-12T06:13:52.371Z,17.50
2019-02-12T06:14:23.632Z,13.70
2019-02-12T06:14:54.823Z,15.60
2019-02-12T06:15:26.066Z,14.83
2019-02-12T06:15:57.260Z,13.40
2019-02-12T06:16:28.516Z,13.93
2019-02-12T06:16:59.718Z,16.23
2019-02-12T06:17:30.958Z,20.43
2019-02-12T06:18:02.146Z,14.63
2019-02-12T06:18:33.364Z,19.70
2019-02-12T06:19:04.534Z,20.63
2019-02-12T06:19:35.770Z,20.50
2019-02-12T06:20:06.941Z,17.60
2019-02-12T06:20:38.244Z,14.73
2019-02-12T06:21:09.580Z,19.60
2019-02-12T06:21:40.856Z,12.60
2019-02-12T06:22:12.394Z,15.43
2019-02-12T06:22:43.666Z,19.57
2019-02-12T06:23:14.991Z,11.53
2019-02-12T06:23:46.272Z,15.80
2019-02-12T06:24:17.532Z,12.77
2019-02-12T06:24:48.829Z,17.07
2019-02-12T06:25:20.208Z,14.80
2019-02-12T06:25:51.500Z,19.97
2019-02-12T06:26:22.723Z,12.83
2019-02-12T06:26:53.920Z,14.30
2019-02-12T06:27:25.183Z,16.70
2019-02-12T06:27:56.390Z,18.10
2019-02-12T06:28:27.652Z,22.10
2019-02-12T06:28:58.856Z,17.13
2019-02-12T06:29:30.305Z,12.90
2019-02-12T06:30:01.501Z,16.33
2019-02-12T06:30:32.762Z,15.03
2019-02-12T06:31:03.928Z,15.07
2019-02-12T06:31:35.171Z,20.40
2019-02-12T06:32:06.375Z,18.20
2019-02-12T06:32:37.621Z,18.77
2019-02-12T06:33:08.818Z,18.20
2019-02-12T06:33:40.066Z,17.57
2019-02-12T06:34:11.269Z,14.13
2019-02-12T06:34:42.515Z,15.33
2019-02-12T06:35:14.696Z,14.90
2019-02-12T06:35:45.938Z,19.30
2019-02-12T06:36:17.097Z,19.83
2019-02-12T06:36:48.335Z,16.70
2019-02-12T06:37:19.556Z,15.83
2019-02-12T06:37:50.755Z,16.17
2019-02-12T06:38:22.001Z,13.40
2019-02-12T06:38:53.292Z,13.80
2019-02-12T06:39:24.517Z,11.47
2019-02-12T06:39:55.701Z,15.57
2019-02-12T06:40:26.949Z,22.73
2019-02-12T06:40:58.169Z,17.43
2019-02-12T06:41:29.430Z,15.40
2019-02-12T06:42:00.621Z,17.07
2019-02-12T06:42:31.872Z,14.93
2019-02-12T06:43:03.050Z,18.10
2019-02-12T06:43:34.282Z,17.93
2019-02-12T06:44:05.491Z,18.37
2019-02-12T06:44:36.731Z,14.37
2019-02-12T06:45:12.528Z,18.77
2019-02-12T06:45:43.743Z,21.50
2019-02-12T06:46:14.942Z,15.20
2019-02-12T06:46:46.204Z,17.33
2019-02-12T06:47:17.487Z,21.70
2019-02-12T06:47:48.826Z,16.43
2019-02-12T06:48:20.022Z,11.10
2019-02-12T06:48:51.236Z,11.53
2019-02-12T06:49:22.455Z,13.10
2019-02-12T06:49:53.693Z,12.20
2019-02-12T06:50:24.868Z,15.93
2019-02-12T06:50:56.117Z,13.43
2019-02-12T06:51:27.305Z,22.17
2019-02-12T06:51:58.553Z,16.30